Time;durP1;ratioP1;P1;durP2;ratioP2;P2;SDS_P1;SDS_P2;PMS_P1;PMS_P2;Temp;Humidity;BMP_temperature;BMP_pressure;BME280_temperature;BME280_humidity;BME280_pressure;Samples;Min_cycle;Max_cycle;Signal;HPM_P1;HPM_P2
2023/05/03 00:01:08;;;;;;;7.83;5.60;;;14.70;49.90;;;;;;5034042;28;20459;-84
2023/05/03 00:03:38;;;;;;;7.80;4.50;;;14.50;50.10;;;;;;5027112;28;20494;-82
2023/05/03 00:06:12;;;;;;;9.33;4.87;;;14.40;51.00;;;;;;5028001;28;20520;-84
2023/05/03 00:08:40;;;;;;;8.90;5.40;;;14.40;51.00;;;;;;5037372;28;20441;-84
2023/05/03 00:11:07;;;;;;;7.63;4.90;;;14.40;50.80;;;;;;5054037;28;20449;-84
2023/05/03 00:13:35;;;;;;;6.90;5.93;;;14.40;50.00;;;;;;5024179;28;20450;-86
2023/05/03 00:16:02;;;;;;;10.23;5.07;;;14.20;50.70;;;;;;5026407;28;20504;-84
2023/05/03 00:18:30;;;;;;;10.40;5.40;;;14.20;50.90;;;;;;5018025;28;20958;-85
2023/05/03 00:20:59;;;;;;;7.73;4.67;;;14.10;50.60;;;;;;5024632;28;20459;-83
2023/05/03 00:23:27;;;;;;;8.77;5.60;;;14.00;51.10;;;;;;5026003;28;20450;-85
2023/05/03 00:25:54;;;;;;;6.50;4.70;;;14.20;50.40;;;;;;5058803;28;20868;-85
2023/05/03 00:28:21;;;;;;;8.93;5.40;;;14.00;49.70;;;;;;5028960;28;20461;-84
2023/05/03 00:30:48;;;;;;;12.10;5.83;;;13.50;52.00;;;;;;5039305;28;20463;-83
2023/05/03 00:33:16;;;;;;;7.57;5.50;;;13.60;51.90;;;;;;5021302;28;20453;-84
2023/05/03 00:35:43;;;;;;;7.00;5.30;;;13.60;51.80;;;;;;5022961;28;20481;-85
2023/05/03 00:38:13;;;;;;;7.63;4.60;;;13.50;51.90;;;;;;5022670;28;20459;-83
2023/05/03 00:40:40;;;;;;;6.33;5.13;;;13.70;51.50;;;;;;5042473;28;20852;-84
2023/05/03 00:43:07;;;;;;;9.37;5.33;;;13.50;51.80;;;;;;5024202;28;20492;-84
2023/05/03 00:45:34;;;;;;;8.63;5.30;;;13.70;51.90;;;;;;5024462;28;20446;-83
2023/05/03 00:48:01;;;;;;;9.37;5.70;;;13.80;51.40;;;;;;5007052;28;20540;-86
2023/05/03 00:50:29;;;;;;;8.80;5.50;;;14.00;51.30;;;;;;5024794;28;20954;-84
2023/05/03 00:52:57;;;;;;;10.30;6.00;;;13.80;51.10;;;;;;5048651;28;20529;-83
2023/05/03 00:55:29;;;;;;;10.50;5.50;;;13.50;52.10;;;;;;5010287;28;21185;-82
2023/05/03 00:57:56;;;;;;;9.63;5.30;;;13.50;52.30;;;;;;5024691;28;20459;-84
2023/05/03 01:00:24;;;;;;;8.30;5.47;;;13.40;52.40;;;;;;5011756;28;20813;-86
2023/05/03 01:02:52;;;;;;;7.73;5.17;;;13.40;52.50;;;;;;5006308;28;20582;-85
2023/05/03 01:05:21;;;;;;;9.43;5.77;;;13.50;52.50;;;;;;5014542;28;20445;-83
2023/05/03 01:08:04;;;;;;;15.40;6.50;;;13.70;52.40;;;;;;5044512;28;20551;-84
2023/05/03 01:10:42;;;;;;;8.50;5.10;;;13.90;52.00;;;;;;5024080;28;20440;-85
2023/05/03 01:13:14;;;;;;;12.10;6.17;;;14.00;52.00;;;;;;5029013;28;20824;-84
2023/05/03 01:15:51;;;;;;;6.17;5.10;;;13.80;52.10;;;;;;5025389;28;20531;-83
2023/05/03 01:18:22;;;;;;;8.33;5.93;;;13.80;52.00;;;;;;5014688;28;20457;-84
2023/05/03 01:20:50;;;;;;;10.90;5.60;;;13.60;52.30;;;;;;5025457;28;20448;-84
2023/05/03 01:23:28;;;;;;;7.63;4.13;;;13.50;52.10;;;;;;5028589;28;20438;-84
2023/05/03 01:25:57;;;;;;;8.20;5.70;;;13.60;52.50;;;;;;5039772;28;20467;-82
2023/05/03 01:28:24;;;;;;;6.90;5.27;;;13.80;52.50;;;;;;5015036;28;20449;-85
2023/05/03 01:30:54;;;;;;;8.23;5.10;;;13.90;52.40;;;;;;5020680;28;20476;-84
2023/05/03 01:33:30;;;;;;;9.00;5.30;;;13.90;51.90;;;;;;5034577;28;20540;-83
2023/05/03 01:36:02;;;;;;;10.87;4.30;;;13.90;52.30;;;;;;5032941;28;20472;-82
2023/05/03 01:38:33;;;;;;;9.03;6.10;;;14.00;52.10;;;;;;5028573;28;20456;-85
2023/05/03 01:41:05;;;;;;;9.20;5.10;;;13.80;51.80;;;;;;5016369;28;20525;-83
2023/05/03 01:43:35;;;;;;;9.77;4.80;;;13.90;52.50;;;;;;5018133;28;20445;-85
2023/05/03 01:46:02;;;;;;;8.43;4.87;;;13.80;51.90;;;;;;5061271;28;20548;-83
2023/05/03 01:48:29;;;;;;;5.80;4.50;;;14.00;52.20;;;;;;5024047;28;20445;-88
2023/05/03 01:50:56;;;;;;;7.63;4.70;;;14.00;52.10;;;;;;5039461;28;20454;-84
2023/05/03 01:53:24;;;;;;;9.27;5.63;;;14.10;51.40;;;;;;5032517;28;20458;-84
2023/05/03 01:55:51;;;;;;;8.07;5.37;;;14.00;50.80;;;;;;5046802;28;20468;-84
2023/05/03 01:58:20;;;;;;;9.10;5.43;;;13.80;51.60;;;;;;5014170;28;20449;-83
2023/05/03 02:00:48;;;;;;;6.07;4.90;;;13.80;51.60;;;;;;5047328;28;20444;-84
2023/05/03 02:03:15;;;;;;;7.83;5.50;;;14.00;51.10;;;;;;5063961;28;20477;-85
2023/05/03 02:05:42;;;;;;;12.10;5.43;;;13.70;51.20;;;;;;5041810;28;20438;-84
2023/05/03 02:08:09;;;;;;;9.23;5.50;;;13.70;51.20;;;;;;5031215;28;20896;-83
2023/05/03 02:10:36;;;;;;;7.73;4.97;;;13.90;51.90;;;;;;5035664;28;20895;-85
2023/05/03 02:13:03;;;;;;;7.23;5.10;;;14.00;51.00;;;;;;5023327;28;20441;-85
2023/05/03 02:15:31;;;;;;;9.00;4.77;;;13.90;50.30;;;;;;5024977;28;20536;-87
2023/05/03 02:18:01;;;;;;;8.57;5.37;;;14.00;50.90;;;;;;5008006;28;20457;-85
2023/05/03 02:20:31;;;;;;;9.00;4.93;;;14.10;50.80;;;;;;5023758;28;20463;-83
2023/05/03 02:22:59;;;;;;;6.57;4.90;;;14.20;50.80;;;;;;5043661;28;20446;-85
2023/05/03 02:25:26;;;;;;;6.20;4.43;;;14.30;50.40;;;;;;5026484;28;20810;-86
2023/05/03 02:27:53;;;;;;;11.37;4.20;;;14.40;50.80;;;;;;5030311;28;20458;-85
2023/05/03 02:30:20;;;;;;;6.40;5.07;;;14.30;49.70;;;;;;5012344;28;20516;-83
2023/05/03 02:32:48;;;;;;;6.50;4.90;;;14.40;50.20;;;;;;5020047;28;20587;-85
2023/05/03 02:35:18;;;;;;;10.10;5.37;;;14.50;50.50;;;;;;5011610;28;20881;-85
2023/05/03 02:37:45;;;;;;;8.23;5.07;;;14.30;49.80;;;;;;5014354;28;20461;-84
2023/05/03 02:40:13;;;;;;;9.43;4.90;;;14.30;50.00;;;;;;5013183;28;20453;-85
2023/05/03 02:42:41;;;;;;;7.60;4.57;;;14.30;50.20;;;;;;5021833;28;20450;-85
2023/05/03 02:45:09;;;;;;;6.93;4.80;;;14.20;50.00;;;;;;5035014;28;20445;-85
2023/05/03 02:47:36;;;;;;;7.80;4.20;;;14.10;49.30;;;;;;5044499;28;20556;-84
2023/05/03 02:50:05;;;;;;;9.30;5.27;;;14.00;49.90;;;;;;5036257;28;20446;-85
2023/05/03 02:52:36;;;;;;;6.07;4.60;;;13.80;50.20;;;;;;5021453;28;20531;-87
2023/05/03 02:55:04;;;;;;;7.00;4.97;;;13.90;50.30;;;;;;5019391;28;20521;-83
2023/05/03 02:57:31;;;;;;;9.77;4.90;;;13.80;50.10;;;;;;5041649;28;20463;-86
2023/05/03 02:59:58;;;;;;;9.73;4.40;;;13.80;50.70;;;;;;5018864;28;20450;-82
2023/05/03 03:02:26;;;;;;;8.43;5.63;;;13.90;51.10;;;;;;5018075;28;20562;-82
2023/05/03 03:04:53;;;;;;;9.03;4.47;;;13.80;50.40;;;;;;5029792;28;20464;-84
2023/05/03 03:07:21;;;;;;;9.20;5.03;;;13.90;50.40;;;;;;5032752;28;20473;-84
2023/05/03 03:09:49;;;;;;;7.07;5.03;;;13.90;50.50;;;;;;5043507;28;20448;-84
2023/05/03 03:12:16;;;;;;;6.13;4.27;;;14.00;50.30;;;;;;5023715;28;20458;-85
2023/05/03 03:14:44;;;;;;;6.87;4.67;;;14.00;49.70;;;;;;5025443;28;20537;-83
2023/05/03 03:17:12;;;;;;;7.97;4.70;;;13.90;50.00;;;;;;5005487;28;20463;-83
2023/05/03 03:19:39;;;;;;;6.87;4.87;;;13.70;49.70;;;;;;5027333;28;20509;-85
2023/05/03 03:22:06;;;;;;;10.83;4.73;;;13.60;49.90;;;;;;5035360;28;20841;-82
2023/05/03 03:24:36;;;;;;;6.77;4.83;;;13.50;49.90;;;;;;5037179;28;21008;-84
2023/05/03 03:27:04;;;;;;;7.57;4.80;;;13.50;50.70;;;;;;5025708;28;20513;-83
2023/05/03 03:29:32;;;;;;;7.73;5.10;;;13.60;50.50;;;;;;5019546;28;20978;-85
2023/05/03 03:32:01;;;;;;;6.77;3.97;;;13.70;50.00;;;;;;5045215;28;21167;-85
2023/05/03 03:34:28;;;;;;;12.97;4.63;;;13.80;49.50;;;;;;5028232;28;20461;-84
2023/05/03 03:36:55;;;;;;;6.10;4.50;;;13.70;49.20;;;;;;5005780;28;20468;-84
2023/05/03 03:39:22;;;;;;;5.70;4.23;;;13.70;49.50;;;;;;5022296;28;20454;-82
2023/05/03 03:41:50;;;;;;;5.43;4.37;;;13.70;49.40;;;;;;5013645;28;20886;-84
2023/05/03 03:44:18;;;;;;;9.00;4.93;;;13.70;49.50;;;;;;5036200;28;20453;-85
2023/05/03 03:46:45;;;;;;;7.53;5.00;;;13.60;49.60;;;;;;5025148;28;20596;-83
2023/05/03 03:49:12;;;;;;;9.97;4.33;;;13.50;49.00;;;;;;5028446;28;20565;-83
2023/05/03 03:51:38;;;;;;;9.77;4.83;;;13.40;49.60;;;;;;5011772;28;20448;-84
2023/05/03 03:54:06;;;;;;;10.70;5.10;;;13.50;49.40;;;;;;5027771;28;20452;-84
2023/05/03 03:56:37;;;;;;;7.00;4.73;;;13.40;49.50;;;;;;5035574;28;20474;-84
2023/05/03 03:59:06;;;;;;;7.40;4.47;;;13.40;49.70;;;;;;5006359;28;20476;-85
2023/05/03 04:01:34;;;;;;;6.87;4.20;;;13.30;49.60;;;;;;5046960;28;20483;-83
2023/05/03 04:04:01;;;;;;;8.47;5.30;;;13.20;50.10;;;;;;5012613;28;20988;-84
2023/05/03 04:06:28;;;;;;;6.03;4.70;;;13.10;49.70;;;;;;5040126;28;20473;-83
2023/05/03 04:08:57;;;;;;;11.83;5.30;;;13.10;49.80;;;;;;5002398;28;20451;-85
2023/05/03 04:11:24;;;;;;;7.10;4.37;;;13.10;50.00;;;;;;5019038;28;20459;-85
2023/05/03 04:13:57;;;;;;;6.07;4.30;;;13.10;49.50;;;;;;5025359;28;20484;-85
2023/05/03 04:16:25;;;;;;;7.57;5.30;;;13.00;48.90;;;;;;5023876;28;20572;-87
2023/05/03 04:18:53;;;;;;;9.47;6.27;;;12.70;49.90;;;;;;5025105;28;20451;-85
2023/05/03 04:21:20;;;;;;;8.33;5.97;;;12.70;50.40;;;;;;5034833;28;20530;-83
2023/05/03 04:23:47;;;;;;;5.83;5.10;;;12.70;49.90;;;;;;4999607;28;20441;-85
2023/05/03 04:26:17;;;;;;;10.83;5.50;;;12.80;49.80;;;;;;5037437;28;20539;-88
2023/05/03 04:28:44;;;;;;;6.30;4.83;;;12.80;50.10;;;;;;5012709;28;20786;-84
2023/05/03 04:31:13;;;;;;;11.03;6.60;;;12.90;49.90;;;;;;5017321;28;20532;-84
2023/05/03 04:33:41;;;;;;;8.50;4.63;;;13.00;49.40;;;;;;5018964;28;20462;-84
2023/05/03 04:36:09;;;;;;;18.80;11.13;;;12.80;49.10;;;;;;5032649;28;20480;-83
2023/05/03 04:38:38;;;;;;;12.67;6.90;;;12.60;49.00;;;;;;5033561;28;20532;-85
2023/05/03 04:41:05;;;;;;;8.07;4.93;;;12.40;48.40;;;;;;5022525;28;20967;-84
2023/05/03 04:43:33;;;;;;;10.90;5.30;;;12.30;48.10;;;;;;5031056;28;20451;-85
2023/05/03 04:46:01;;;;;;;7.73;5.30;;;12.30;49.00;;;;;;5001375;28;20462;-85
2023/05/03 04:48:28;;;;;;;6.53;4.43;;;12.40;49.40;;;;;;5008617;28;20480;-85
2023/05/03 04:50:56;;;;;;;7.13;4.90;;;12.60;49.50;;;;;;5005496;28;20453;-85
2023/05/03 04:53:24;;;;;;;7.67;4.93;;;12.70;48.30;;;;;;5030441;28;20968;-83
2023/05/03 04:56:00;;;;;;;6.77;4.93;;;12.80;49.00;;;;;;5020332;28;20575;-86
2023/05/03 04:58:28;;;;;;;8.87;5.23;;;12.90;49.20;;;;;;5028223;28;20457;-84
2023/05/03 05:00:55;;;;;;;9.40;5.40;;;13.00;49.10;;;;;;5027857;28;20502;-85
2023/05/03 05:03:27;;;;;;;8.87;5.00;;;13.00;49.40;;;;;;5013390;28;20538;-85
2023/05/03 05:05:55;;;;;;;9.33;5.80;;;13.00;49.10;;;;;;5022540;28;20456;-86
2023/05/03 05:08:23;;;;;;;9.77;5.20;;;13.00;49.30;;;;;;5034139;28;20445;-84
2023/05/03 05:10:54;;;;;;;11.30;5.60;;;13.00;49.00;;;;;;5004534;28;20537;-84
2023/05/03 05:13:25;;;;;;;7.07;5.20;;;13.10;49.10;;;;;;5005755;28;20802;-85
2023/05/03 05:15:52;;;;;;;6.40;4.93;;;13.20;49.20;;;;;;5015505;28;22310;-84
2023/05/03 05:18:19;;;;;;;7.07;5.20;;;13.20;49.30;;;;;;5011237;28;20508;-85
2023/05/03 05:20:48;;;;;;;11.20;5.30;;;13.20;48.40;;;;;;5020463;28;20450;-85
2023/05/03 05:23:16;;;;;;;6.60;4.90;;;13.30;47.90;;;;;;5013885;28;20927;-86
2023/05/03 05:25:46;;;;;;;7.10;4.90;;;13.10;46.90;;;;;;5021256;28;20452;-86
2023/05/03 05:28:13;;;;;;;12.10;4.60;;;12.80;47.20;;;;;;5013101;28;20440;-86
2023/05/03 05:30:41;;;;;;;6.53;4.40;;;12.50;47.30;;;;;;5005430;28;20624;-85
2023/05/03 05:33:08;;;;;;;8.53;4.70;;;12.60;47.70;;;;;;5032894;28;20955;-87
2023/05/03 05:35:35;;;;;;;6.77;4.83;;;12.70;47.60;;;;;;5018321;28;20460;-83
2023/05/03 05:38:04;;;;;;;14.07;4.93;;;12.90;47.60;;;;;;5013147;28;20851;-85
2023/05/03 05:40:33;;;;;;;5.40;3.93;;;12.80;47.00;;;;;;5014452;28;20434;-85
2023/05/03 05:43:01;;;;;;;6.30;4.27;;;12.70;47.40;;;;;;5038255;28;20966;-83
2023/05/03 05:45:30;;;;;;;6.13;4.23;;;12.80;47.40;;;;;;5011688;28;20503;-85
2023/05/03 05:47:58;;;;;;;7.47;4.70;;;12.80;47.00;;;;;;5011942;28;20978;-83
2023/05/03 05:50:26;;;;;;;5.23;4.53;;;12.80;47.70;;;;;;5031415;28;20503;-85
2023/05/03 05:52:58;;;;;;;6.23;4.30;;;12.90;48.10;;;;;;5055851;28;20440;-85
2023/05/03 05:55:28;;;;;;;6.80;5.00;;;13.00;47.80;;;;;;5028558;28;20453;-85
2023/05/03 05:57:58;;;;;;;11.93;5.30;;;13.20;47.50;;;;;;5035045;28;20477;-85
2023/05/03 06:00:32;;;;;;;12.37;4.60;;;13.20;46.50;;;;;;5019359;28;20445;-85
2023/05/03 06:03:00;;;;;;;9.20;5.00;;;13.20;46.20;;;;;;5018588;28;20480;-85
2023/05/03 06:05:27;;;;;;;6.80;4.83;;;13.00;47.00;;;;;;5025045;28;20446;-84
2023/05/03 06:07:54;;;;;;;8.80;4.53;;;13.00;47.70;;;;;;5025218;28;20963;-84
2023/05/03 06:10:21;;;;;;;6.77;4.10;;;13.00;47.00;;;;;;5019945;28;20524;-83
2023/05/03 06:12:51;;;;;;;7.33;4.77;;;13.20;47.20;;;;;;5019594;28;20457;-82
2023/05/03 06:15:24;;;;;;;7.80;4.67;;;13.10;46.30;;;;;;5026636;28;20445;-84
2023/05/03 06:17:51;;;;;;;9.77;4.87;;;12.90;46.60;;;;;;5033464;28;20496;-85
2023/05/03 06:20:18;;;;;;;9.53;4.67;;;12.90;47.50;;;;;;5000459;28;20544;-84
2023/05/03 06:22:45;;;;;;;9.77;4.60;;;13.00;47.50;;;;;;5029356;28;20579;-86
2023/05/03 06:25:14;;;;;;;9.50;4.67;;;12.90;47.10;;;;;;5022805;28;20449;-83
2023/05/03 06:27:43;;;;;;;7.63;5.10;;;12.80;47.00;;;;;;5011337;28;20477;-84
2023/05/03 06:30:12;;;;;;;6.30;4.70;;;12.90;47.10;;;;;;5041223;28;20531;-87
2023/05/03 06:32:42;;;;;;;9.33;5.23;;;12.90;47.50;;;;;;5010010;28;20465;-84
2023/05/03 06:35:09;;;;;;;7.07;4.73;;;12.90;47.20;;;;;;5023066;28;20453;-82
2023/05/03 06:37:38;;;;;;;7.70;4.47;;;12.90;47.40;;;;;;5002007;28;20492;-84
2023/05/03 06:40:07;;;;;;;14.80;6.23;;;12.90;47.30;;;;;;5012550;28;20446;-84
2023/05/03 06:42:36;;;;;;;15.07;4.47;;;13.00;47.50;;;;;;5030733;28;20454;-85
2023/05/03 06:45:14;;;;;;;4.43;4.00;;;12.90;46.90;;;;;;5011431;28;20982;-85
2023/05/03 06:47:42;;;;;;;6.07;4.17;;;13.00;47.40;;;;;;5008690;28;20559;-84
2023/05/03 06:50:09;;;;;;;5.37;4.40;;;13.00;47.20;;;;;;5028058;28;20452;-85
2023/05/03 06:52:36;;;;;;;6.50;4.37;;;13.10;47.70;;;;;;5040586;28;20455;-84
2023/05/03 06:55:04;;;;;;;8.33;4.27;;;13.10;47.00;;;;;;5020986;28;20445;-86
2023/05/03 06:57:31;;;;;;;7.00;4.67;;;13.30;46.90;;;;;;5017596;28;20837;-86
2023/05/03 06:59:58;;;;;;;7.20;4.50;;;13.30;47.10;;;;;;5000047;28;20445;-85
2023/05/03 07:02:25;;;;;;;9.40;5.97;;;13.70;47.30;;;;;;5018204;28;20458;-85
2023/05/03 07:04:53;;;;;;;7.40;5.20;;;13.90;46.10;;;;;;5011203;28;20546;-85
2023/05/03 07:07:20;;;;;;;6.23;4.40;;;14.10;46.70;;;;;;5032686;28;20978;-81
2023/05/03 07:09:48;;;;;;;8.03;4.63;;;14.10;45.80;;;;;;5034156;28;20453;-82
2023/05/03 07:12:15;;;;;;;7.33;5.07;;;14.10;45.90;;;;;;5033852;28;20463;-82
2023/05/03 07:14:43;;;;;;;9.80;5.83;;;14.20;46.30;;;;;;5007981;28;20456;-83
2023/05/03 07:17:10;;;;;;;8.20;4.87;;;14.20;46.50;;;;;;4999795;28;20560;-82
2023/05/03 07:19:37;;;;;;;9.40;4.50;;;14.20;45.80;;;;;;5018733;28;20815;-82
2023/05/03 07:22:05;;;;;;;7.47;4.97;;;14.30;45.80;;;;;;5020093;28;20464;-83
2023/05/03 07:24:32;;;;;;;8.93;4.50;;;14.70;46.20;;;;;;5017072;28;20437;-83
2023/05/03 07:26:59;;;;;;;5.40;4.23;;;14.70;45.20;;;;;;5023529;28;20468;-84
2023/05/03 07:29:27;;;;;;;6.23;4.70;;;14.50;45.60;;;;;;5017929;28;20454;-83
2023/05/03 07:31:53;;;;;;;10.83;4.83;;;14.10;46.00;;;;;;5034116;28;20464;-82
2023/05/03 07:34:21;;;;;;;9.60;4.87;;;13.70;47.10;;;;;;5034406;28;20454;-83
2023/05/03 07:36:47;;;;;;;6.60;4.57;;;14.00;47.60;;;;;;5015319;28;20515;-83
2023/05/03 07:39:16;;;;;;;5.93;4.50;;;14.30;46.40;;;;;;5036956;28;20452;-81
2023/05/03 07:41:43;;;;;;;6.13;4.13;;;14.20;46.70;;;;;;5040555;28;20477;-82
2023/05/03 07:44:10;;;;;;;6.07;4.37;;;14.40;46.90;;;;;;5018279;28;20457;-80
2023/05/03 07:46:37;;;;;;;8.73;4.60;;;14.50;46.30;;;;;;5018748;28;20457;-83
2023/05/03 07:49:05;;;;;;;8.93;4.50;;;14.60;46.40;;;;;;5023111;28;20460;-80
2023/05/03 07:51:35;;;;;;;9.43;4.90;;;14.50;46.80;;;;;;5015567;28;20663;-84
2023/05/03 07:54:03;;;;;;;7.77;5.00;;;14.80;47.60;;;;;;5025177;28;20452;-84
2023/05/03 07:56:31;;;;;;;8.67;5.17;;;15.20;46.60;;;;;;5017009;28;20489;-82
2023/05/03 07:58:59;;;;;;;7.37;4.70;;;15.60;46.10;;;;;;4999060;28;21992;-81
2023/05/03 08:01:26;;;;;;;7.70;4.77;;;15.70;44.40;;;;;;5014054;28;20488;-82
2023/05/03 08:03:53;;;;;;;6.27;4.90;;;15.50;44.80;;;;;;5031055;28;20453;-82
2023/05/03 08:06:20;;;;;;;5.80;4.80;;;14.90;45.70;;;;;;5000571;28;20469;-80
2023/05/03 08:08:47;;;;;;;8.00;5.70;;;15.00;46.10;;;;;;5005077;28;20442;-82
2023/05/03 08:11:14;;;;;;;5.50;5.00;;;15.10;45.80;;;;;;5036110;28;20994;-83
2023/05/03 08:13:42;;;;;;;6.00;4.90;;;15.30;46.10;;;;;;5022775;28;20513;-83
2023/05/03 08:16:09;;;;;;;7.77;5.30;;;15.40;45.90;;;;;;5005645;28;20481;-81
2023/05/03 08:18:36;;;;;;;10.33;4.53;;;15.40;45.60;;;;;;5050452;28;20436;-81
2023/05/03 08:21:03;;;;;;;7.73;5.03;;;15.40;46.20;;;;;;5018696;28;20452;-83
2023/05/03 08:23:30;;;;;;;11.33;5.10;;;15.70;46.10;;;;;;4996901;28;20835;-82
2023/05/03 08:25:59;;;;;;;5.90;3.87;;;15.80;45.20;;;;;;5002444;28;20552;-81
2023/05/03 08:28:26;;;;;;;5.10;4.60;;;15.80;44.90;;;;;;5034349;28;20478;-80
2023/05/03 08:30:55;;;;;;;8.53;5.23;;;15.90;45.00;;;;;;5028584;28;20453;-82
2023/05/03 08:33:22;;;;;;;8.17;6.23;;;16.10;45.10;;;;;;5020733;28;20502;-82
2023/05/03 08:35:49;;;;;;;8.33;5.40;;;16.50;45.50;;;;;;5017307;28;20438;-82
2023/05/03 08:38:16;;;;;;;5.40;4.90;;;17.00;44.60;;;;;;5029250;28;20472;-82
2023/05/03 08:40:45;;;;;;;10.83;5.20;;;17.30;44.70;;;;;;5001708;28;20445;-82
2023/05/03 08:43:14;;;;;;;4.87;4.30;;;17.50;43.50;;;;;;5010174;28;20457;-83
2023/05/03 08:45:41;;;;;;;6.73;4.90;;;17.40;43.00;;;;;;5017144;28;20482;-82
2023/05/03 08:48:10;;;;;;;7.00;4.30;;;17.30;43.30;;;;;;5015181;28;20453;-83
2023/05/03 08:50:41;;;;;;;9.30;5.20;;;17.30;43.50;;;;;;5016359;28;20466;-81
2023/05/03 08:53:08;;;;;;;5.77;5.03;;;17.20;42.60;;;;;;5027382;28;20502;-81
2023/05/03 08:55:35;;;;;;;6.00;4.93;;;17.40;42.70;;;;;;5033873;28;20464;-81
2023/05/03 08:58:03;;;;;;;7.50;4.10;;;17.60;42.30;;;;;;5016779;28;20479;-81
2023/05/03 09:00:30;;;;;;;6.80;5.27;;;17.50;42.50;;;;;;5036357;28;20502;-83
2023/05/03 09:02:58;;;;;;;10.00;5.43;;;17.50;43.50;;;;;;5004958;28;20531;-84
2023/05/03 09:05:37;;;;;;;5.87;4.63;;;17.90;42.30;;;;;;5035187;28;20460;-81
2023/05/03 09:08:06;;;;;;;6.63;4.97;;;17.60;42.90;;;;;;5020150;28;20510;-83
2023/05/03 09:10:36;;;;;;;5.70;4.53;;;17.50;42.10;;;;;;5026212;28;20445;-83
2023/05/03 09:13:03;;;;;;;9.80;4.70;;;17.30;42.80;;;;;;5010060;28;20520;-83
2023/05/03 09:15:31;;;;;;;6.17;4.83;;;17.40;42.90;;;;;;5043417;28;20476;-82
2023/05/03 09:18:14;;;;;;;12.93;5.73;;;17.70;43.10;;;;;;5020499;28;20468;-82
2023/05/03 09:20:50;;;;;;;6.03;4.57;;;18.00;42.00;;;;;;5033539;28;20540;-83
2023/05/03 09:23:17;;;;;;;6.37;4.70;;;18.00;42.80;;;;;;5037155;28;20444;-81
2023/05/03 09:25:46;;;;;;;6.83;5.43;;;18.20;41.50;;;;;;5024272;28;20671;-83
2023/05/03 09:28:14;;;;;;;12.57;7.00;;;18.60;40.70;;;;;;5003925;28;20821;-84
2023/05/03 09:30:41;;;;;;;8.80;5.80;;;18.70;40.60;;;;;;5031708;28;20465;-83
2023/05/03 09:33:09;;;;;;;10.43;5.80;;;18.60;39.90;;;;;;5020646;28;20523;-80
2023/05/03 09:35:36;;;;;;;9.33;4.60;;;18.90;41.10;;;;;;5035279;28;20448;-83
2023/05/03 09:38:04;;;;;;;7.07;5.17;;;18.70;40.40;;;;;;5019635;28;20477;-83
2023/05/03 09:40:31;;;;;;;8.20;5.53;;;18.70;41.00;;;;;;5035443;28;20449;-82
2023/05/03 09:43:06;;;;;;;9.17;6.60;;;19.00;40.90;;;;;;5006591;28;20445;-84
2023/05/03 09:45:34;;;;;;;11.67;6.37;;;19.30;40.40;;;;;;5035049;28;20476;-84
2023/05/03 09:48:02;;;;;;;7.10;5.10;;;19.60;39.90;;;;;;5034677;28;20476;-83
2023/05/03 09:50:32;;;;;;;6.37;4.50;;;19.80;39.40;;;;;;5034004;28;20495;-81
2023/05/03 09:53:02;;;;;;;7.13;5.27;;;20.20;38.80;;;;;;5020383;28;20873;-82
2023/05/03 09:55:32;;;;;;;8.97;5.57;;;20.30;39.70;;;;;;5017887;28;20441;-83
2023/05/03 09:58:00;;;;;;;10.20;5.10;;;20.50;39.00;;;;;;5023134;28;21996;-81
2023/05/03 10:00:29;;;;;;;7.93;5.57;;;20.50;37.70;;;;;;5001086;28;20463;-79
2023/05/03 10:02:58;;;;;;;9.20;5.93;;;20.60;38.90;;;;;;5033366;28;20438;-82
2023/05/03 10:05:30;;;;;;;7.57;5.43;;;20.20;39.40;;;;;;5002987;28;20445;-82
2023/05/03 10:08:00;;;;;;;10.17;5.63;;;20.30;38.50;;;;;;5037217;28;20469;-83
2023/05/03 10:10:32;;;;;;;9.63;5.80;;;20.30;39.60;;;;;;5019210;28;20460;-81
2023/05/03 10:13:00;;;;;;;7.60;4.60;;;20.70;39.60;;;;;;5020535;28;20498;-82
2023/05/03 10:15:28;;;;;;;11.20;5.87;;;20.80;37.80;;;;;;5031862;28;21186;-81
2023/05/03 10:17:57;;;;;;;6.20;4.93;;;20.40;38.00;;;;;;5005249;28;20495;-83
2023/05/03 10:20:30;;;;;;;9.10;5.27;;;20.50;38.10;;;;;;5033637;28;20671;-83
2023/05/03 10:23:13;;;;;;;8.77;6.50;;;20.90;38.10;;;;;;5038760;28;20460;-82
2023/05/03 10:26:14;;;;;;;6.87;5.40;;;20.90;37.70;;;;;;5014126;28;20452;-81
2023/05/03 10:28:41;;;;;;;7.73;5.30;;;21.50;37.80;;;;;;5024810;28;21201;-82
2023/05/03 10:31:42;;;;;;;7.50;4.77;;;22.00;36.40;;;;;;5042423;28;20615;-83
2023/05/03 10:34:20;;;;;;;6.30;5.67;;;22.20;37.80;;;;;;5018924;28;20480;-83
2023/05/03 10:36:49;;;;;;;5.40;4.50;;;22.20;35.60;;;;;;5029609;28;20472;-82
2023/05/03 10:39:17;;;;;;;5.53;4.00;;;22.50;35.30;;;;;;5033896;28;20433;-82
2023/05/03 10:41:57;;;;;;;7.93;4.87;;;22.30;36.00;;;;;;5017755;28;20580;-84
2023/05/03 10:44:28;;;;;;;9.50;6.40;;;22.20;34.80;;;;;;5042514;28;20458;-83
2023/05/03 10:46:55;;;;;;;7.40;5.80;;;22.20;35.70;;;;;;5018770;28;20505;-80
2023/05/03 10:49:25;;;;;;;9.00;5.57;;;22.20;36.50;;;;;;5013834;28;20553;-81
2023/05/03 10:51:52;;;;;;;7.00;5.23;;;22.10;36.30;;;;;;5003776;28;20462;-84
2023/05/03 10:54:19;;;;;;;6.97;4.40;;;22.50;35.70;;;;;;5018379;28;20825;-81
2023/05/03 10:56:56;;;;;;;12.40;4.83;;;22.80;35.00;;;;;;5014191;28;20480;-84
2023/05/03 10:59:24;;;;;;;5.63;4.27;;;23.20;34.90;;;;;;5033068;28;20476;-84
2023/05/03 11:01:52;;;;;;;4.97;4.47;;;23.70;35.10;;;;;;5016824;28;20442;-84
2023/05/03 11:04:29;;;;;;;11.47;4.73;;;24.10;33.40;;;;;;5027147;28;20449;-84
2023/05/03 11:06:57;;;;;;;5.40;4.30;;;24.00;32.70;;;;;;5031203;28;20534;-82
2023/05/03 11:09:31;;;;;;;6.70;4.80;;;23.20;33.00;;;;;;5026239;28;20453;-83
2023/05/03 11:12:04;;;;;;;9.40;5.27;;;22.50;33.50;;;;;;5008201;28;21011;-83
2023/05/03 11:14:30;;;;;;;5.93;4.67;;;22.50;34.40;;;;;;5040816;28;20453;-83
2023/05/03 11:16:57;;;;;;;7.33;4.80;;;22.30;34.80;;;;;;5020936;28;20472;-85
2023/05/03 11:19:25;;;;;;;5.20;3.73;;;22.20;33.70;;;;;;5008702;28;20446;-81
2023/05/03 11:21:52;;;;;;;7.00;4.10;;;22.30;35.90;;;;;;5023401;28;20468;-82
2023/05/03 11:24:20;;;;;;;7.17;4.50;;;22.20;33.70;;;;;;5035433;28;20535;-84
2023/05/03 11:26:47;;;;;;;8.00;3.97;;;22.50;35.70;;;;;;5020515;28;20920;-82
2023/05/03 11:29:17;;;;;;;4.43;3.60;;;22.90;33.20;;;;;;5024393;28;20480;-82
2023/05/03 11:31:45;;;;;;;6.30;3.60;;;22.60;33.60;;;;;;5015559;28;20503;-83
2023/05/03 11:34:13;;;;;;;4.90;3.50;;;22.30;33.80;;;;;;5014021;28;20856;-83
2023/05/03 11:36:40;;;;;;;5.70;4.40;;;22.30;34.00;;;;;;5048157;28;20470;-84
2023/05/03 11:39:08;;;;;;;7.63;3.80;;;22.80;34.00;;;;;;4999635;28;20560;-83
2023/05/03 11:41:35;;;;;;;6.53;3.60;;;23.10;32.30;;;;;;5022976;28;20458;-82
2023/05/03 11:44:03;;;;;;;5.63;3.60;;;23.10;33.40;;;;;;5007576;28;20463;-84
2023/05/03 11:46:35;;;;;;;5.23;3.60;;;23.70;33.90;;;;;;5006825;28;20468;-85
2023/05/03 11:49:03;;;;;;;6.50;3.60;;;23.90;31.40;;;;;;5020738;28;20466;-83
2023/05/03 11:51:30;;;;;;;4.17;3.77;;;24.20;30.60;;;;;;5018308;28;21021;-81
2023/05/03 11:54:00;;;;;;;7.60;4.73;;;23.30;29.60;;;;;;5021669;28;20438;-82
2023/05/03 11:56:27;;;;;;;4.50;3.50;;;22.70;32.30;;;;;;5025520;28;20465;-82
2023/05/03 11:58:57;;;;;;;3.90;3.50;;;23.20;32.80;;;;;;5047749;28;20970;-86
2023/05/03 12:01:25;;;;;;;5.67;2.97;;;23.50;30.70;;;;;;5017196;28;20992;-83
2023/05/03 12:03:55;;;;;;;5.63;4.63;;;23.50;31.30;;;;;;5016169;28;20455;-84
2023/05/03 12:06:22;;;;;;;3.47;3.17;;;23.80;30.50;;;;;;5041654;28;21154;-82
2023/05/03 12:08:50;;;;;;;3.63;3.33;;;23.80;30.50;;;;;;5016401;28;20844;-82
2023/05/03 12:11:17;;;;;;;3.50;2.73;;;23.70;30.50;;;;;;5051470;28;20809;-83
2023/05/03 12:13:44;;;;;;;4.10;3.60;;;23.60;29.60;;;;;;5021804;28;20463;-84
2023/05/03 12:16:13;;;;;;;3.53;3.23;;;23.40;32.70;;;;;;5022557;28;20466;-83
2023/05/03 12:18:52;;;;;;;3.87;3.50;;;23.10;31.40;;;;;;5021967;28;20843;-83
2023/05/03 12:21:22;;;;;;;6.53;3.70;;;23.00;31.50;;;;;;5032967;28;20854;-82
2023/05/03 12:23:50;;;;;;;6.20;3.20;;;23.10;31.90;;;;;;5013769;28;20573;-83
2023/05/03 12:26:17;;;;;;;4.43;3.60;;;23.40;30.40;;;;;;5042967;28;20519;-83
2023/05/03 12:28:45;;;;;;;14.23;3.30;;;23.70;29.60;;;;;;5030111;28;20444;-82
2023/05/03 12:31:13;;;;;;;6.97;3.70;;;23.40;30.70;;;;;;5025844;28;20449;-82
2023/05/03 12:33:40;;;;;;;5.23;3.33;;;23.50;29.70;;;;;;5021573;28;20445;-83
2023/05/03 12:36:07;;;;;;;4.87;3.20;;;23.30;31.00;;;;;;5040387;28;20476;-82
2023/05/03 12:38:36;;;;;;;4.70;3.27;;;23.50;32.40;;;;;;5004945;28;20473;-83
2023/05/03 12:41:03;;;;;;;4.67;3.10;;;24.00;30.60;;;;;;5034204;28;20452;-83
2023/05/03 12:43:30;;;;;;;6.00;3.17;;;24.00;29.50;;;;;;5033736;28;20464;-83
2023/05/03 12:46:01;;;;;;;5.00;3.30;;;23.90;29.40;;;;;;5030474;28;20442;-83
2023/05/03 12:48:29;;;;;;;3.87;3.50;;;23.20;29.50;;;;;;5016252;28;20446;-82
2023/05/03 12:50:56;;;;;;;3.53;2.63;;;23.00;30.50;;;;;;5000236;28;20481;-83
2023/05/03 12:53:25;;;;;;;5.63;2.60;;;23.20;30.00;;;;;;5028089;28;20452;-82